createdAt,value
2023-01-25T00:01:15.690Z,9.90
2023-01-25T00:03:41.986Z,6.93
2023-01-25T00:06:08.731Z,13.10
2023-01-25T00:08:35.136Z,7.80
2023-01-25T00:11:01.447Z,9.27
2023-01-25T00:13:27.755Z,10.23
2023-01-25T00:15:54.072Z,11.50
2023-01-25T00:18:21.283Z,13.23
2023-01-25T00:20:47.630Z,10.30
2023-01-25T00:23:13.989Z,8.43
2023-01-25T00:25:40.293Z,14.77
2023-01-25T00:28:06.633Z,7.73
2023-01-25T00:30:32.975Z,10.30
2023-01-25T00:33:07.238Z,8.77
2023-01-25T00:35:34.489Z,7.43
2023-01-25T00:38:02.351Z,10.23
2023-01-25T00:40:28.668Z,6.63
2023-01-25T00:42:55.744Z,8.07
2023-01-25T00:45:22.053Z,8.33
2023-01-25T00:47:48.354Z,7.50
2023-01-25T00:50:15.931Z,8.27
2023-01-25T00:52:42.273Z,11.23
2023-01-25T00:55:09.206Z,13.43
2023-01-25T00:57:35.764Z,12.63
2023-01-25T01:00:02.091Z,8.83
2023-01-25T01:02:30.263Z,8.23
2023-01-25T01:04:56.848Z,9.87
2023-01-25T01:07:23.440Z,8.03
2023-01-25T01:09:49.762Z,9.80
2023-01-25T01:12:16.102Z,8.90
2023-01-25T01:14:42.470Z,9.53
2023-01-25T01:17:08.846Z,7.13
2023-01-25T01:19:35.392Z,10.07
2023-01-25T01:22:01.738Z,8.23
2023-01-25T01:24:28.110Z,9.83
2023-01-25T01:26:54.555Z,15.67
2023-01-25T01:29:20.917Z,8.87
2023-01-25T01:31:49.713Z,9.27
2023-01-25T01:34:16.135Z,9.53
2023-01-25T01:36:42.605Z,7.37
2023-01-25T01:39:09.109Z,9.60
2023-01-25T01:41:35.500Z,8.53
2023-01-25T01:44:01.827Z,10.60
2023-01-25T01:46:28.251Z,10.77
2023-01-25T01:48:57.905Z,8.93
2023-01-25T01:51:24.294Z,15.67
2023-01-25T01:54:03.047Z,12.13
2023-01-25T01:56:33.510Z,15.73
2023-01-25T01:59:00.162Z,13.23
2023-01-25T02:04:06.705Z,9.50
2023-01-25T02:06:36.889Z,8.80
2023-01-25T02:09:03.203Z,13.20
2023-01-25T02:11:30.676Z,8.47
2023-01-25T02:13:58.087Z,8.13
2023-01-25T02:16:25.716Z,9.97
2023-01-25T02:18:53.429Z,14.13
2023-01-25T02:21:19.836Z,11.80
2023-01-25T02:24:05.722Z,13.40
2023-01-25T02:26:32.117Z,11.87
2023-01-25T02:29:00.965Z,10.20
2023-01-25T02:31:27.434Z,13.40
2023-01-25T02:33:53.804Z,13.73
2023-01-25T02:36:21.706Z,11.63
2023-01-25T02:38:59.344Z,10.37
2023-01-25T02:41:33.949Z,8.33
2023-01-25T02:44:23.556Z,14.88
2023-01-25T02:46:49.897Z,11.30
2023-01-25T02:49:16.554Z,14.03
2023-01-25T02:51:44.208Z,10.17
2023-01-25T02:54:11.994Z,11.77
2023-01-25T02:56:40.686Z,15.67
2023-01-25T02:59:07.734Z,11.03
2023-01-25T03:01:38.588Z,11.17
2023-01-25T03:04:05.591Z,14.23
2023-01-25T03:06:32.573Z,15.73
2023-01-25T03:08:59.100Z,15.27
2023-01-25T03:11:25.551Z,16.27
2023-01-25T03:13:51.855Z,9.47
2023-01-25T03:16:18.277Z,11.43
2023-01-25T03:18:44.624Z,11.80
2023-01-25T03:21:18.126Z,15.63
2023-01-25T03:23:45.180Z,15.37
2023-01-25T03:26:15.870Z,16.40
2023-01-25T03:28:42.544Z,11.97
2023-01-25T03:31:10.239Z,22.07
2023-01-25T03:33:36.984Z,11.77
2023-01-25T03:36:03.805Z,11.93
2023-01-25T03:38:30.771Z,11.80
2023-01-25T03:40:57.367Z,18.33
2023-01-25T03:43:24.050Z,13.23
2023-01-25T03:45:54.703Z,19.37
2023-01-25T03:48:21.849Z,13.60
2023-01-25T03:50:52.360Z,19.07
2023-01-25T03:53:32.161Z,18.60
2023-01-25T03:55:59.702Z,15.47
2023-01-25T03:58:26.500Z,12.57
2023-01-25T04:00:54.784Z,23.13
2023-01-25T04:03:21.627Z,10.60
2023-01-25T04:05:48.073Z,12.67
2023-01-25T04:08:14.432Z,13.77
2023-01-25T04:10:40.896Z,11.53
2023-01-25T04:13:07.294Z,13.07
2023-01-25T04:15:33.603Z,9.03
2023-01-25T04:17:59.950Z,12.70
2023-01-25T04:20:26.315Z,14.07
2023-01-25T04:22:52.739Z,16.37
2023-01-25T04:25:19.047Z,11.57
2023-01-25T04:27:45.440Z,11.27
2023-01-25T04:30:11.952Z,19.20
2023-01-25T04:32:38.364Z,13.17
2023-01-25T04:35:04.916Z,9.77
2023-01-25T04:37:31.225Z,10.73
2023-01-25T04:39:57.534Z,13.00
2023-01-25T04:42:23.994Z,11.50
2023-01-25T04:44:50.297Z,12.47
2023-01-25T04:47:16.599Z,14.07
2023-01-25T04:49:42.995Z,7.53
2023-01-25T04:52:09.316Z,16.07
2023-01-25T04:54:35.613Z,22.00
2023-01-25T04:57:01.945Z,27.90
2023-01-25T04:59:28.340Z,22.70
2023-01-25T05:01:54.881Z,13.30
2023-01-25T05:04:21.289Z,21.27
2023-01-25T05:06:47.587Z,12.90
2023-01-25T05:09:13.939Z,15.07
2023-01-25T05:11:40.238Z,14.87
2023-01-25T05:14:06.537Z,20.03
2023-01-25T05:16:32.904Z,12.20
2023-01-25T05:18:59.274Z,23.93
2023-01-25T05:21:45.109Z,10.80
2023-01-25T05:24:11.643Z,15.33
2023-01-25T05:26:56.931Z,17.97
2023-01-25T05:29:23.263Z,13.23
2023-01-25T05:31:49.762Z,16.40
2023-01-25T05:34:16.129Z,17.90
2023-01-25T05:36:42.435Z,16.73
2023-01-25T05:39:09.104Z,20.30
2023-01-25T05:41:35.521Z,17.93
2023-01-25T05:44:01.889Z,18.40
2023-01-25T05:46:28.598Z,12.93
2023-01-25T05:48:54.952Z,27.10
2023-01-25T05:51:21.361Z,22.03
2023-01-25T05:53:47.664Z,24.63
2023-01-25T05:56:14.019Z,22.07
2023-01-25T05:58:40.316Z,21.37
2023-01-25T06:01:07.877Z,23.77
2023-01-25T06:03:34.487Z,15.97
2023-01-25T06:06:04.612Z,23.10
2023-01-25T06:08:31.408Z,17.70
2023-01-25T06:10:58.359Z,25.00
2023-01-25T06:13:24.929Z,20.03
2023-01-25T06:15:52.205Z,20.40
2023-01-25T06:18:18.749Z,16.70
2023-01-25T06:20:45.054Z,18.93
2023-01-25T06:23:11.358Z,18.93
2023-01-25T06:25:37.695Z,12.03
2023-01-25T06:28:04.153Z,18.80
2023-01-25T06:30:30.457Z,22.40
2023-01-25T06:33:00.156Z,16.00
2023-01-25T06:35:26.489Z,9.87
2023-01-25T06:37:55.505Z,23.87
2023-01-25T06:40:21.929Z,24.97
2023-01-25T06:42:48.300Z,23.87
2023-01-25T06:45:14.860Z,16.73
2023-01-25T06:47:41.395Z,14.77
2023-01-25T06:50:08.370Z,24.43
2023-01-25T06:52:37.759Z,29.50
2023-01-25T06:55:04.738Z,27.73
2023-01-25T06:57:31.242Z,20.63
2023-01-25T06:59:57.545Z,13.10
2023-01-25T07:02:23.928Z,17.73
2023-01-25T07:04:50.258Z,21.67
2023-01-25T07:07:16.563Z,68.10
2023-01-25T07:09:42.981Z,67.10
2023-01-25T07:12:09.499Z,69.37
2023-01-25T07:14:35.792Z,77.20
2023-01-25T07:17:03.741Z,67.27
2023-01-25T07:19:30.458Z,53.83
2023-01-25T07:21:56.740Z,64.77
2023-01-25T07:24:27.128Z,64.23
2023-01-25T07:26:53.701Z,51.57
2023-01-25T07:29:20.071Z,60.17
2023-01-25T07:31:46.516Z,75.20
2023-01-25T07:34:13.563Z,62.53
2023-01-25T07:36:40.759Z,51.87
2023-01-25T07:39:09.219Z,62.43
2023-01-25T07:41:35.530Z,66.33
2023-01-25T07:44:01.830Z,70.83
2023-01-25T07:46:28.132Z,55.13
2023-01-25T07:48:54.590Z,64.03
2023-01-25T07:51:30.085Z,88.43
2023-01-25T07:53:57.470Z,60.60
2023-01-25T07:56:25.008Z,65.63
2023-01-25T07:58:58.074Z,65.47
2023-01-25T08:01:26.046Z,68.33
2023-01-25T08:03:53.874Z,63.57
2023-01-25T08:06:30.637Z,59.83
2023-01-25T08:08:58.320Z,57.13
2023-01-25T08:11:25.980Z,47.87
2023-01-25T08:13:52.354Z,57.30
2023-01-25T08:16:19.951Z,50.00
2023-01-25T08:18:54.837Z,49.40
2023-01-25T08:21:21.594Z,53.10
2023-01-25T08:23:47.899Z,62.30
2023-01-25T08:26:15.273Z,41.63
2023-01-25T08:28:41.589Z,46.93
2023-01-25T08:31:11.176Z,44.43
2023-01-25T08:33:38.176Z,40.47
2023-01-25T08:36:05.568Z,63.10
2023-01-25T08:38:32.326Z,49.10
2023-01-25T08:41:24.755Z,49.67
2023-01-25T08:43:52.106Z,44.63
2023-01-25T08:46:18.775Z,48.57
2023-01-25T08:48:45.098Z,46.23
2023-01-25T08:51:12.493Z,55.10
2023-01-25T08:53:39.175Z,45.60
2023-01-25T08:56:09.982Z,48.93
2023-01-25T08:58:37.878Z,46.27
2023-01-25T09:01:05.795Z,42.90
2023-01-25T09:03:35.173Z,40.63
2023-01-25T09:06:01.606Z,48.33
2023-01-25T09:08:27.919Z,31.77
2023-01-25T09:10:54.221Z,49.93
2023-01-25T09:13:20.517Z,47.07
2023-01-25T09:15:46.820Z,40.23
2023-01-25T09:18:13.217Z,38.07
2023-01-25T09:20:40.166Z,44.80
2023-01-25T09:23:06.496Z,43.20
2023-01-25T09:25:32.800Z,35.50
2023-01-25T09:27:59.973Z,48.17
2023-01-25T09:30:40.828Z,39.13
2023-01-25T09:33:16.369Z,41.65
2023-01-25T09:35:47.089Z,42.67
2023-01-25T09:38:13.380Z,41.50
2023-01-25T09:40:41.432Z,38.40
2023-01-25T09:43:30.757Z,44.77
2023-01-25T09:45:57.633Z,45.47
2023-01-25T09:48:32.395Z,47.00
2023-01-25T09:51:17.671Z,54.65
2023-01-25T09:53:51.291Z,67.47
2023-01-25T09:56:22.335Z,46.20
2023-01-25T09:58:49.411Z,54.00
2023-01-25T10:01:21.737Z,45.87
2023-01-25T10:03:53.803Z,55.13
2023-01-25T10:06:23.605Z,40.43
2023-01-25T10:08:53.435Z,46.67
2023-01-25T10:11:26.819Z,58.13
2023-01-25T10:13:55.900Z,54.50
2023-01-25T10:16:40.680Z,48.20
2023-01-25T10:19:09.783Z,48.47
2023-01-25T10:21:59.099Z,55.13
2023-01-25T10:24:44.289Z,41.90
2023-01-25T10:27:19.807Z,53.92
2023-01-25T10:29:47.185Z,45.73
2023-01-25T10:32:24.293Z,48.13
2023-01-25T10:34:56.624Z,35.77
2023-01-25T10:37:25.628Z,49.73
2023-01-25T10:40:01.315Z,59.20
2023-01-25T10:42:29.645Z,51.23
2023-01-25T10:44:56.073Z,51.60
2023-01-25T10:47:27.793Z,48.03
2023-01-25T10:49:57.785Z,61.50
2023-01-25T10:52:24.123Z,47.00
2023-01-25T10:55:07.479Z,52.37
2023-01-25T10:57:35.102Z,48.97
2023-01-25T11:00:05.425Z,52.47
2023-01-25T11:02:41.651Z,53.33
2023-01-25T11:05:26.768Z,51.40
2023-01-25T11:07:53.508Z,46.17
2023-01-25T11:10:29.267Z,56.80
2023-01-25T11:13:13.830Z,49.33
2023-01-25T11:15:41.132Z,42.58
2023-01-25T11:18:12.851Z,41.40
2023-01-25T11:20:39.259Z,61.93
2023-01-25T11:23:18.811Z,40.93
2023-01-25T11:25:45.110Z,54.97
2023-01-25T11:28:21.794Z,58.77
2023-01-25T11:30:49.021Z,45.13
2023-01-25T11:33:16.063Z,55.63
2023-01-25T11:36:01.034Z,59.07
2023-01-25T11:38:27.901Z,55.75
2023-01-25T11:41:08.330Z,65.90
2023-01-25T11:43:53.590Z,52.80
2023-01-25T11:46:31.942Z,45.78
2023-01-25T11:49:17.408Z,68.80
2023-01-25T11:51:54.112Z,55.60
2023-01-25T11:54:21.155Z,50.07
2023-01-25T11:56:54.236Z,53.37
2023-01-25T11:59:30.210Z,55.33
2023-01-25T12:02:10.911Z,53.23
2023-01-25T12:05:06.364Z,51.73
2023-01-25T12:07:44.572Z,56.87
2023-01-25T12:10:16.991Z,70.70
2023-01-25T12:12:43.406Z,43.87
2023-01-25T12:15:09.850Z,52.73
2023-01-25T12:17:36.136Z,47.27
2023-01-25T12:20:24.621Z,54.60
2023-01-25T12:22:50.908Z,64.83
2023-01-25T12:25:29.517Z,53.83
2023-01-25T12:28:06.957Z,61.40
2023-01-25T12:30:46.274Z,57.70
2023-01-25T12:33:15.640Z,70.20
2023-01-25T12:35:42.005Z,63.07
2023-01-25T12:38:29.440Z,62.63
2023-01-25T12:41:21.995Z,57.67
2023-01-25T12:43:50.539Z,66.10
2023-01-25T12:46:24.168Z,49.77
2023-01-25T12:48:52.383Z,56.07
2023-01-25T12:51:20.300Z,66.37
2023-01-25T12:53:47.302Z,58.10
2023-01-25T12:56:40.834Z,52.63
2023-01-25T12:59:13.528Z,62.07
2023-01-25T13:01:52.857Z,65.70
2023-01-25T13:04:37.398Z,65.17
2023-01-25T13:07:10.160Z,58.27
2023-01-25T13:09:42.769Z,64.23
2023-01-25T13:12:10.757Z,54.27
2023-01-25T13:14:38.448Z,62.87
2023-01-25T13:17:19.986Z,71.53
2023-01-25T13:19:46.577Z,55.13
2023-01-25T13:22:13.561Z,72.03
2023-01-25T13:25:03.869Z,63.53
2023-01-25T13:27:31.156Z,57.70
2023-01-25T13:29:59.247Z,58.40
2023-01-25T13:32:25.664Z,70.33
2023-01-25T13:34:52.028Z,69.33
2023-01-25T13:37:21.411Z,67.07
2023-01-25T13:39:49.492Z,54.90
2023-01-25T13:42:25.886Z,87.27
2023-01-25T13:44:54.400Z,45.90
2023-01-25T13:47:22.643Z,61.27
2023-01-25T13:49:51.991Z,63.20
2023-01-25T13:52:19.671Z,48.23
2023-01-25T13:54:47.020Z,50.17
2023-01-25T13:57:24.164Z,66.20
2023-01-25T14:00:11.296Z,65.80
2023-01-25T14:02:38.970Z,63.10
2023-01-25T14:05:07.990Z,67.67
2023-01-25T14:07:36.889Z,73.93
2023-01-25T14:10:08.139Z,67.17
2023-01-25T14:12:41.922Z,10.27
2023-01-25T14:15:25.075Z,58.20
2023-01-25T14:18:10.067Z,44.47
2023-01-25T14:20:36.421Z,58.35
2023-01-25T14:23:03.830Z,50.00
2023-01-25T14:25:30.355Z,50.90
2023-01-25T14:27:58.920Z,57.77
2023-01-25T14:30:30.403Z,46.60
2023-01-25T14:32:57.953Z,56.93
2023-01-25T14:35:54.626Z,54.57
2023-01-25T14:38:26.421Z,53.20
2023-01-25T14:40:55.145Z,52.37
2023-01-25T14:43:22.503Z,54.83
2023-01-25T14:45:48.849Z,59.90
2023-01-25T14:48:33.865Z,66.93
2023-01-25T14:51:05.485Z,52.47
2023-01-25T14:53:31.908Z,51.27
2023-01-25T14:55:58.314Z,50.60
2023-01-25T14:58:25.343Z,61.83
2023-01-25T15:00:52.364Z,70.63
2023-01-25T15:03:18.783Z,51.53
2023-01-25T15:05:46.176Z,54.23
2023-01-25T15:08:12.439Z,53.90
2023-01-25T15:11:18.974Z,58.73
2023-01-25T15:13:45.441Z,55.50
2023-01-25T15:16:11.883Z,68.77
2023-01-25T15:18:51.729Z,57.33
2023-01-25T15:21:18.070Z,60.30
2023-01-25T15:23:45.380Z,65.43
2023-01-25T15:26:13.025Z,67.90
2023-01-25T15:28:39.430Z,78.87
2023-01-25T15:31:05.916Z,62.90
2023-01-25T15:33:32.571Z,59.30
2023-01-25T15:35:58.971Z,65.00
2023-01-25T15:38:25.606Z,75.67
2023-01-25T15:40:52.261Z,74.83
2023-01-25T15:43:19.278Z,70.83
2023-01-25T15:45:49.390Z,71.77
2023-01-25T15:48:20.051Z,65.83
2023-01-25T15:50:46.373Z,63.97
2023-01-25T15:53:16.436Z,63.10
2023-01-25T15:55:44.262Z,69.30
2023-01-25T15:58:13.984Z,67.73
2023-01-25T16:00:40.759Z,68.13
2023-01-25T16:03:07.767Z,52.70
2023-01-25T16:05:34.140Z,65.10
2023-01-25T16:08:00.458Z,63.20
2023-01-25T16:10:26.768Z,73.80
2023-01-25T16:12:53.083Z,71.17
2023-01-25T16:15:19.425Z,56.90
2023-01-25T16:17:45.840Z,67.37
2023-01-25T16:20:20.148Z,87.37
2023-01-25T16:22:47.124Z,72.32
2023-01-25T16:25:13.808Z,60.63
2023-01-25T16:27:40.169Z,29.90
2023-01-25T16:30:07.111Z,63.80
2023-01-25T16:32:33.425Z,31.80
2023-01-25T16:34:59.754Z,64.17
2023-01-25T16:37:26.527Z,33.70
2023-01-25T16:39:53.709Z,61.97
2023-01-25T16:42:22.432Z,58.57
2023-01-25T16:44:49.570Z,69.70
2023-01-25T16:47:15.876Z,69.40
2023-01-25T16:49:42.152Z,61.43
2023-01-25T16:52:10.608Z,68.97
2023-01-25T16:54:37.053Z,66.80
2023-01-25T16:57:15.115Z,84.30
2023-01-25T16:59:46.058Z,49.03
2023-01-25T17:02:12.759Z,55.63
2023-01-25T17:04:39.235Z,73.27
2023-01-25T17:07:05.565Z,68.33
2023-01-25T17:09:31.961Z,57.90
2023-01-25T17:11:58.311Z,58.10
2023-01-25T17:14:24.648Z,57.73
2023-01-25T17:16:53.600Z,70.50
2023-01-25T17:19:20.285Z,45.50
2023-01-25T17:21:46.793Z,60.00
2023-01-25T17:24:14.779Z,69.97
2023-01-25T17:26:41.195Z,62.20
2023-01-25T17:29:07.704Z,76.07
2023-01-25T17:31:34.702Z,64.27
2023-01-25T17:34:02.002Z,75.47
2023-01-25T17:36:28.320Z,76.87
2023-01-25T17:38:54.657Z,72.43
2023-01-25T17:41:21.115Z,54.20
2023-01-25T17:43:51.677Z,68.40
2023-01-25T17:46:22.674Z,71.47
2023-01-25T17:48:49.064Z,52.03
2023-01-25T17:51:15.388Z,73.53
2023-01-25T17:53:41.773Z,67.47
2023-01-25T17:56:08.719Z,80.90
2023-01-25T17:58:36.688Z,69.87
2023-01-25T18:01:14.356Z,70.07
2023-01-25T18:03:41.611Z,64.80
2023-01-25T18:06:09.422Z,60.67
2023-01-25T18:08:40.514Z,79.77
2023-01-25T18:11:11.204Z,66.03
2023-01-25T18:13:41.144Z,57.17
2023-01-25T18:16:09.420Z,63.60
2023-01-25T18:18:36.501Z,56.90
2023-01-25T18:21:03.751Z,56.67
2023-01-25T18:23:30.103Z,65.07
2023-01-25T18:25:56.400Z,54.27
2023-01-25T18:28:22.696Z,66.23
2023-01-25T18:30:53.549Z,61.47
2023-01-25T18:33:19.963Z,63.23
2023-01-25T18:35:48.364Z,68.87
2023-01-25T18:38:15.461Z,57.77
2023-01-25T18:40:43.696Z,71.63
2023-01-25T18:43:13.839Z,73.33
2023-01-25T18:45:40.174Z,73.43
2023-01-25T18:48:06.550Z,68.53
2023-01-25T18:50:33.396Z,77.30
2023-01-25T18:52:59.844Z,63.07
2023-01-25T18:55:27.668Z,79.57
2023-01-25T18:57:54.240Z,53.50
2023-01-25T19:00:20.658Z,65.77
2023-01-25T19:02:47.075Z,80.07
2023-01-25T19:05:14.353Z,64.53
2023-01-25T19:07:40.721Z,73.10
2023-01-25T19:10:07.279Z,50.93
2023-01-25T19:12:33.702Z,43.47
2023-01-25T19:15:00.143Z,48.30
2023-01-25T19:17:26.488Z,61.97
2023-01-25T19:19:52.806Z,73.03
2023-01-25T19:22:19.197Z,56.67
2023-01-25T19:24:45.917Z,60.77
2023-01-25T19:27:12.435Z,72.23
2023-01-25T19:29:39.125Z,57.70
2023-01-25T19:32:05.611Z,60.53
2023-01-25T19:34:32.000Z,65.43
2023-01-25T19:36:58.469Z,65.00
2023-01-25T19:39:25.868Z,54.27
2023-01-25T19:41:53.278Z,68.57
2023-01-25T19:44:20.670Z,66.00
2023-01-25T19:46:47.221Z,70.77
2023-01-25T19:49:14.410Z,62.17
2023-01-25T19:51:42.702Z,68.00
2023-01-25T19:54:15.694Z,51.80
2023-01-25T19:56:43.140Z,60.30
2023-01-25T19:59:16.649Z,62.90
2023-01-25T20:01:46.346Z,69.50
2023-01-25T20:04:14.170Z,64.50
2023-01-25T20:06:41.056Z,69.10
2023-01-25T20:09:07.441Z,75.90
2023-01-25T20:11:34.149Z,58.83
2023-01-25T20:14:04.667Z,72.40
2023-01-25T20:16:32.193Z,48.90
2023-01-25T20:18:58.694Z,82.37
2023-01-25T20:21:25.873Z,83.77
2023-01-25T20:23:58.062Z,86.73
2023-01-25T20:26:29.477Z,68.97
2023-01-25T20:28:56.826Z,98.30
2023-01-25T20:31:25.007Z,77.33
2023-01-25T20:33:52.875Z,103.13
2023-01-25T20:36:19.274Z,61.73
2023-01-25T20:38:46.007Z,51.73
2023-01-25T20:41:16.545Z,79.83
2023-01-25T20:43:49.894Z,69.27
2023-01-25T20:46:16.546Z,78.47
2023-01-25T20:48:43.234Z,77.93
2023-01-25T20:51:10.594Z,77.73
2023-01-25T20:53:37.132Z,80.73
2023-01-25T20:56:03.609Z,71.43
2023-01-25T20:58:29.900Z,69.80
2023-01-25T21:00:56.318Z,68.80
2023-01-25T21:03:23.047Z,69.27
2023-01-25T21:05:53.308Z,69.70
2023-01-25T21:08:19.678Z,66.43
2023-01-25T21:10:58.780Z,69.17
2023-01-25T21:13:25.904Z,62.33
2023-01-25T21:16:03.353Z,69.80
2023-01-25T21:18:32.794Z,74.60
2023-01-25T21:20:59.955Z,67.90
2023-01-25T21:23:26.271Z,61.33
2023-01-25T21:25:52.615Z,81.90
2023-01-25T21:28:18.901Z,65.00
2023-01-25T21:30:45.238Z,66.10
2023-01-25T21:33:11.581Z,58.97
2023-01-25T21:35:37.867Z,70.07
2023-01-25T21:38:04.193Z,65.67
2023-01-25T21:40:30.580Z,64.80
2023-01-25T21:42:57.151Z,47.43
2023-01-25T21:45:42.054Z,62.93
2023-01-25T21:48:08.381Z,72.45
2023-01-25T21:50:53.198Z,54.17
2023-01-25T21:53:19.532Z,68.18
2023-01-25T21:55:45.839Z,52.73
2023-01-25T21:58:12.508Z,62.50
2023-01-25T22:00:38.805Z,133.83
2023-01-25T22:03:05.194Z,61.23
2023-01-25T22:05:31.567Z,59.50
2023-01-25T22:08:00.769Z,70.63
2023-01-25T22:10:27.161Z,49.73
2023-01-25T22:12:53.495Z,55.50
2023-01-25T22:15:19.825Z,63.30
2023-01-25T22:17:46.124Z,53.27
2023-01-25T22:20:12.888Z,63.33
2023-01-25T22:22:39.323Z,59.20
2023-01-25T22:25:05.815Z,54.70
2023-01-25T22:27:44.557Z,59.33
2023-01-25T22:30:11.568Z,63.13
2023-01-25T22:32:38.297Z,61.60
2023-01-25T22:35:04.731Z,65.70
2023-01-25T22:37:31.032Z,46.23
2023-01-25T22:39:58.535Z,51.57
2023-01-25T22:42:25.480Z,51.00
2023-01-25T22:44:51.932Z,54.07
2023-01-25T22:47:18.224Z,49.23
2023-01-25T22:49:44.527Z,57.37
2023-01-25T22:52:10.854Z,49.03
2023-01-25T22:54:37.195Z,48.43
2023-01-25T22:57:03.540Z,45.23
2023-01-25T22:59:29.872Z,50.47
2023-01-25T23:01:56.172Z,50.03
2023-01-25T23:04:22.488Z,58.00
2023-01-25T23:06:49.138Z,58.13
2023-01-25T23:09:15.401Z,55.60
2023-01-25T23:11:41.728Z,37.10
2023-01-25T23:14:27.817Z,50.70
2023-01-25T23:17:14.176Z,54.47
2023-01-25T23:19:40.447Z,45.13
2023-01-25T23:22:06.748Z,49.20
2023-01-25T23:24:33.054Z,36.90
2023-01-25T23:26:59.346Z,46.77
2023-01-25T23:29:25.623Z,38.83
2023-01-25T23:31:51.961Z,46.43
2023-01-25T23:34:18.361Z,42.53
2023-01-25T23:36:44.668Z,42.93
2023-01-25T23:39:12.059Z,38.57
2023-01-25T23:41:38.348Z,45.53
2023-01-25T23:44:04.716Z,47.90
2023-01-25T23:46:31.036Z,48.70
2023-01-25T23:48:57.364Z,51.90
2023-01-25T23:51:23.692Z,46.37
2023-01-25T23:53:49.959Z,52.80
2023-01-25T23:56:17.345Z,57.10
2023-01-25T23:58:44.062Z,52.30
